sensor_id;sensor_type;location;lat;lon;timestamp;P1;durP1;ratioP1;P2;durP2;ratioP2
18510;SDS011;9384;48.044;11.616;2022-07-29T00:01:16;0.90;;;0.90;;
18510;SDS011;9384;48.044;11.616;2022-07-29T00:03:43;1.27;;;0.90;;
18510;SDS011;9384;48.044;11.616;2022-07-29T00:06:10;0.70;;;0.70;;
18510;SDS011;9384;48.044;11.616;2022-07-29T00:08:36;1.07;;;0.60;;
18510;SDS011;9384;48.044;11.616;2022-07-29T00:11:03;1.23;;;0.90;;
18510;SDS011;9384;48.044;11.616;2022-07-29T00:13:32;0.83;;;0.83;;
18510;SDS011;9384;48.044;11.616;2022-07-29T00:15:59;0.77;;;0.77;;
18510;SDS011;9384;48.044;11.616;2022-07-29T00:18:25;0.80;;;0.80;;
18510;SDS011;9384;48.044;11.616;2022-07-29T00:20:53;3.10;;;1.20;;
18510;SDS011;9384;48.044;11.616;2022-07-29T00:23:20;0.80;;;0.80;;
18510;SDS011;9384;48.044;11.616;2022-07-29T00:25:46;0.90;;;0.90;;
18510;SDS011;9384;48.044;11.616;2022-07-29T00:28:13;1.33;;;1.07;;
18510;SDS011;9384;48.044;11.616;2022-07-29T00:30:41;0.90;;;0.90;;
18510;SDS011;9384;48.044;11.616;2022-07-29T00:33:08;1.10;;;1.10;;
18510;SDS011;9384;48.044;11.616;2022-07-29T00:35:35;1.23;;;1.23;;
18510;SDS011;9384;48.044;11.616;2022-07-29T00:38:11;2.20;;;1.60;;
18510;SDS011;9384;48.044;11.616;2022-07-29T00:40:38;1.30;;;1.30;;
18510;SDS011;9384;48.044;11.616;2022-07-29T00:43:06;1.67;;;1.40;;
18510;SDS011;9384;48.044;11.616;2022-07-29T00:45:33;1.63;;;1.53;;
18510;SDS011;9384;48.044;11.616;2022-07-29T00:48:01;1.30;;;1.30;;
18510;SDS011;9384;48.044;11.616;2022-07-29T00:50:29;1.50;;;1.50;;
18510;SDS011;9384;48.044;11.616;2022-07-29T00:52:58;1.33;;;1.30;;
18510;SDS011;9384;48.044;11.616;2022-07-29T00:55:25;1.30;;;1.30;;
18510;SDS011;9384;48.044;11.616;2022-07-29T00:57:52;1.67;;;1.57;;
18510;SDS011;9384;48.044;11.616;2022-07-29T01:00:20;1.33;;;1.33;;
18510;SDS011;9384;48.044;11.616;2022-07-29T01:02:48;1.10;;;1.10;;
18510;SDS011;9384;48.044;11.616;2022-07-29T01:05:18;1.50;;;1.40;;
18510;SDS011;9384;48.044;11.616;2022-07-29T01:07:46;1.47;;;1.47;;
18510;SDS011;9384;48.044;11.616;2022-07-29T01:10:15;1.20;;;1.20;;
18510;SDS011;9384;48.044;11.616;2022-07-29T01:12:43;1.00;;;1.00;;
18510;SDS011;9384;48.044;11.616;2022-07-29T01:15:10;2.50;;;1.40;;
18510;SDS011;9384;48.044;11.616;2022-07-29T01:17:41;1.63;;;1.53;;
18510;SDS011;9384;48.044;11.616;2022-07-29T01:20:12;1.00;;;1.00;;
18510;SDS011;9384;48.044;11.616;2022-07-29T01:25:49;1.00;;;1.00;;
18510;SDS011;9384;48.044;11.616;2022-07-29T01:28:40;2.50;;;1.33;;
18510;SDS011;9384;48.044;11.616;2022-07-29T01:31:16;1.93;;;1.30;;
18510;SDS011;9384;48.044;11.616;2022-07-29T01:33:48;1.30;;;1.13;;
18510;SDS011;9384;48.044;11.616;2022-07-29T01:36:25;1.60;;;1.50;;
18510;SDS011;9384;48.044;11.616;2022-07-29T01:38:58;1.47;;;1.47;;
18510;SDS011;9384;48.044;11.616;2022-07-29T01:41:31;1.33;;;1.33;;
18510;SDS011;9384;48.044;11.616;2022-07-29T01:44:02;1.30;;;1.30;;
18510;SDS011;9384;48.044;11.616;2022-07-29T01:46:39;1.50;;;1.43;;
18510;SDS011;9384;48.044;11.616;2022-07-29T01:49:25;1.80;;;1.40;;
18510;SDS011;9384;48.044;11.616;2022-07-29T01:51:56;1.10;;;1.10;;
18510;SDS011;9384;48.044;11.616;2022-07-29T01:54:29;1.40;;;1.37;;
18510;SDS011;9384;48.044;11.616;2022-07-29T01:57:00;1.67;;;1.20;;
18510;SDS011;9384;48.044;11.616;2022-07-29T01:59:31;1.33;;;1.30;;
18510;SDS011;9384;48.044;11.616;2022-07-29T02:02:01;1.40;;;1.20;;
18510;SDS011;9384;48.044;11.616;2022-07-29T02:04:30;3.07;;;1.40;;
18510;SDS011;9384;48.044;11.616;2022-07-29T02:07:03;2.20;;;1.30;;
18510;SDS011;9384;48.044;11.616;2022-07-29T02:09:33;1.80;;;1.60;;
18510;SDS011;9384;48.044;11.616;2022-07-29T02:12:03;1.50;;;1.50;;
18510;SDS011;9384;48.044;11.616;2022-07-29T02:14:35;1.67;;;1.57;;
18510;SDS011;9384;48.044;11.616;2022-07-29T02:17:04;2.20;;;1.33;;
18510;SDS011;9384;48.044;11.616;2022-07-29T02:19:31;1.53;;;1.53;;
18510;SDS011;9384;48.044;11.616;2022-07-29T02:21:59;1.33;;;1.33;;
18510;SDS011;9384;48.044;11.616;2022-07-29T02:24:27;1.17;;;1.13;;
18510;SDS011;9384;48.044;11.616;2022-07-29T02:26:55;1.20;;;1.20;;
18510;SDS011;9384;48.044;11.616;2022-07-29T02:29:25;1.57;;;1.57;;
18510;SDS011;9384;48.044;11.616;2022-07-29T02:31:54;1.10;;;1.10;;
18510;SDS011;9384;48.044;11.616;2022-07-29T02:34:23;1.50;;;1.10;;
18510;SDS011;9384;48.044;11.616;2022-07-29T02:36:50;2.73;;;1.30;;
18510;SDS011;9384;48.044;11.616;2022-07-29T02:39:18;1.53;;;1.50;;
18510;SDS011;9384;48.044;11.616;2022-07-29T02:41:47;1.60;;;1.60;;
18510;SDS011;9384;48.044;11.616;2022-07-29T02:44:16;1.30;;;1.30;;
18510;SDS011;9384;48.044;11.616;2022-07-29T02:46:49;1.37;;;1.30;;
18510;SDS011;9384;48.044;11.616;2022-07-29T02:49:25;1.10;;;1.10;;
18510;SDS011;9384;48.044;11.616;2022-07-29T02:51:58;1.10;;;1.10;;
18510;SDS011;9384;48.044;11.616;2022-07-29T02:54:30;1.10;;;1.10;;
18510;SDS011;9384;48.044;11.616;2022-07-29T02:57:00;1.47;;;1.40;;
18510;SDS011;9384;48.044;11.616;2022-07-29T02:59:34;0.97;;;0.97;;
18510;SDS011;9384;48.044;11.616;2022-07-29T03:02:07;1.03;;;1.03;;
18510;SDS011;9384;48.044;11.616;2022-07-29T03:04:36;1.20;;;1.20;;
18510;SDS011;9384;48.044;11.616;2022-07-29T03:07:08;1.27;;;1.27;;
18510;SDS011;9384;48.044;11.616;2022-07-29T03:09:36;1.50;;;1.40;;
18510;SDS011;9384;48.044;11.616;2022-07-29T03:12:04;1.00;;;1.00;;
18510;SDS011;9384;48.044;11.616;2022-07-29T03:14:32;1.07;;;1.07;;
18510;SDS011;9384;48.044;11.616;2022-07-29T03:16:59;1.23;;;1.23;;
18510;SDS011;9384;48.044;11.616;2022-07-29T03:19:26;1.23;;;1.20;;
18510;SDS011;9384;48.044;11.616;2022-07-29T03:21:56;1.40;;;1.40;;
18510;SDS011;9384;48.044;11.616;2022-07-29T03:24:24;1.10;;;1.10;;
18510;SDS011;9384;48.044;11.616;2022-07-29T03:26:55;1.20;;;1.10;;
18510;SDS011;9384;48.044;11.616;2022-07-29T03:29:22;1.00;;;1.00;;
18510;SDS011;9384;48.044;11.616;2022-07-29T03:31:50;1.47;;;1.47;;
18510;SDS011;9384;48.044;11.616;2022-07-29T03:34:17;1.33;;;1.20;;
18510;SDS011;9384;48.044;11.616;2022-07-29T03:36:44;1.27;;;1.13;;
18510;SDS011;9384;48.044;11.616;2022-07-29T03:39:12;1.30;;;1.30;;
18510;SDS011;9384;48.044;11.616;2022-07-29T03:41:43;4.33;;;1.60;;
18510;SDS011;9384;48.044;11.616;2022-07-29T03:44:13;3.23;;;1.43;;
18510;SDS011;9384;48.044;11.616;2022-07-29T03:46:42;1.27;;;1.27;;
18510;SDS011;9384;48.044;11.616;2022-07-29T03:49:10;1.27;;;1.20;;
18510;SDS011;9384;48.044;11.616;2022-07-29T03:51:39;1.40;;;1.40;;
18510;SDS011;9384;48.044;11.616;2022-07-29T03:54:06;2.10;;;1.33;;
18510;SDS011;9384;48.044;11.616;2022-07-29T03:56:35;1.37;;;1.30;;
18510;SDS011;9384;48.044;11.616;2022-07-29T03:59:04;1.90;;;1.40;;
18510;SDS011;9384;48.044;11.616;2022-07-29T04:01:32;2.43;;;1.60;;
18510;SDS011;9384;48.044;11.616;2022-07-29T04:04:00;2.23;;;1.40;;
18510;SDS011;9384;48.044;11.616;2022-07-29T04:06:28;1.70;;;1.60;;
18510;SDS011;9384;48.044;11.616;2022-07-29T04:08:55;1.57;;;1.47;;
18510;SDS011;9384;48.044;11.616;2022-07-29T04:11:23;1.43;;;1.40;;
18510;SDS011;9384;48.044;11.616;2022-07-29T04:13:51;1.53;;;1.33;;
18510;SDS011;9384;48.044;11.616;2022-07-29T04:16:18;2.00;;;1.60;;
18510;SDS011;9384;48.044;11.616;2022-07-29T04:18:46;1.50;;;1.50;;
18510;SDS011;9384;48.044;11.616;2022-07-29T04:21:13;1.90;;;1.80;;
18510;SDS011;9384;48.044;11.616;2022-07-29T04:23:40;1.30;;;1.30;;
18510;SDS011;9384;48.044;11.616;2022-07-29T04:26:10;1.33;;;1.33;;
18510;SDS011;9384;48.044;11.616;2022-07-29T04:28:37;2.10;;;2.00;;
18510;SDS011;9384;48.044;11.616;2022-07-29T04:31:06;1.67;;;1.67;;
18510;SDS011;9384;48.044;11.616;2022-07-29T04:33:33;1.60;;;1.60;;
18510;SDS011;9384;48.044;11.616;2022-07-29T04:36:01;2.83;;;1.73;;
18510;SDS011;9384;48.044;11.616;2022-07-29T04:38:28;1.63;;;1.63;;
18510;SDS011;9384;48.044;11.616;2022-07-29T04:40:55;1.73;;;1.60;;
18510;SDS011;9384;48.044;11.616;2022-07-29T04:43:22;1.80;;;1.77;;
18510;SDS011;9384;48.044;11.616;2022-07-29T04:45:49;1.40;;;1.40;;
18510;SDS011;9384;48.044;11.616;2022-07-29T04:48:18;3.17;;;1.40;;
18510;SDS011;9384;48.044;11.616;2022-07-29T04:50:45;5.13;;;1.57;;
18510;SDS011;9384;48.044;11.616;2022-07-29T04:53:12;1.70;;;1.70;;
18510;SDS011;9384;48.044;11.616;2022-07-29T04:55:39;1.60;;;1.60;;
18510;SDS011;9384;48.044;11.616;2022-07-29T04:58:06;1.23;;;1.23;;
18510;SDS011;9384;48.044;11.616;2022-07-29T05:00:34;1.70;;;1.70;;
18510;SDS011;9384;48.044;11.616;2022-07-29T05:03:01;1.80;;;1.70;;
18510;SDS011;9384;48.044;11.616;2022-07-29T05:05:29;1.90;;;1.80;;
18510;SDS011;9384;48.044;11.616;2022-07-29T05:07:57;1.97;;;1.87;;
18510;SDS011;9384;48.044;11.616;2022-07-29T05:10:24;2.63;;;1.60;;
18510;SDS011;9384;48.044;11.616;2022-07-29T05:12:51;2.43;;;2.20;;
18510;SDS011;9384;48.044;11.616;2022-07-29T05:15:18;2.27;;;1.80;;
18510;SDS011;9384;48.044;11.616;2022-07-29T05:17:45;4.30;;;2.00;;
18510;SDS011;9384;48.044;11.616;2022-07-29T05:20:13;2.13;;;2.03;;
18510;SDS011;9384;48.044;11.616;2022-07-29T05:22:41;2.03;;;1.83;;
18510;SDS011;9384;48.044;11.616;2022-07-29T05:25:08;1.60;;;1.60;;
18510;SDS011;9384;48.044;11.616;2022-07-29T05:27:36;2.40;;;1.80;;
18510;SDS011;9384;48.044;11.616;2022-07-29T05:30:03;1.83;;;1.73;;
18510;SDS011;9384;48.044;11.616;2022-07-29T05:32:30;3.40;;;1.97;;
18510;SDS011;9384;48.044;11.616;2022-07-29T05:34:57;2.10;;;2.00;;
18510;SDS011;9384;48.044;11.616;2022-07-29T05:37:25;3.97;;;1.87;;
18510;SDS011;9384;48.044;11.616;2022-07-29T05:39:53;2.30;;;1.70;;
18510;SDS011;9384;48.044;11.616;2022-07-29T05:42:20;2.00;;;1.90;;
18510;SDS011;9384;48.044;11.616;2022-07-29T05:44:48;2.10;;;1.90;;
18510;SDS011;9384;48.044;11.616;2022-07-29T05:47:15;1.80;;;1.70;;
18510;SDS011;9384;48.044;11.616;2022-07-29T05:49:43;2.83;;;1.87;;
18510;SDS011;9384;48.044;11.616;2022-07-29T05:52:11;3.07;;;1.40;;
18510;SDS011;9384;48.044;11.616;2022-07-29T05:54:39;2.00;;;1.70;;
18510;SDS011;9384;48.044;11.616;2022-07-29T05:57:08;2.33;;;2.13;;
18510;SDS011;9384;48.044;11.616;2022-07-29T05:59:35;2.00;;;1.90;;
18510;SDS011;9384;48.044;11.616;2022-07-29T06:02:02;2.20;;;1.77;;
18510;SDS011;9384;48.044;11.616;2022-07-29T06:04:30;1.97;;;1.93;;
18510;SDS011;9384;48.044;11.616;2022-07-29T06:06:57;3.00;;;1.70;;
18510;SDS011;9384;48.044;11.616;2022-07-29T06:09:24;1.73;;;1.73;;
18510;SDS011;9384;48.044;11.616;2022-07-29T06:11:52;1.93;;;1.70;;
18510;SDS011;9384;48.044;11.616;2022-07-29T06:14:20;2.67;;;2.00;;
18510;SDS011;9384;48.044;11.616;2022-07-29T06:16:48;1.83;;;1.83;;
18510;SDS011;9384;48.044;11.616;2022-07-29T06:19:15;2.00;;;1.90;;
18510;SDS011;9384;48.044;11.616;2022-07-29T06:21:42;1.53;;;1.50;;
18510;SDS011;9384;48.044;11.616;2022-07-29T06:24:10;5.43;;;1.90;;
18510;SDS011;9384;48.044;11.616;2022-07-29T06:26:37;1.50;;;1.50;;
18510;SDS011;9384;48.044;11.616;2022-07-29T06:29:04;1.90;;;1.80;;
18510;SDS011;9384;48.044;11.616;2022-07-29T06:31:33;3.13;;;1.93;;
18510;SDS011;9384;48.044;11.616;2022-07-29T06:34:00;1.57;;;1.57;;
18510;SDS011;9384;48.044;11.616;2022-07-29T06:36:27;1.73;;;1.63;;
18510;SDS011;9384;48.044;11.616;2022-07-29T06:38:55;1.77;;;1.67;;
18510;SDS011;9384;48.044;11.616;2022-07-29T06:41:22;1.80;;;1.70;;
18510;SDS011;9384;48.044;11.616;2022-07-29T06:43:49;1.80;;;1.70;;
18510;SDS011;9384;48.044;11.616;2022-07-29T06:46:17;3.30;;;2.10;;
18510;SDS011;9384;48.044;11.616;2022-07-29T06:48:46;2.10;;;2.00;;
18510;SDS011;9384;48.044;11.616;2022-07-29T06:51:13;2.97;;;1.97;;
18510;SDS011;9384;48.044;11.616;2022-07-29T06:53:41;3.60;;;1.73;;
18510;SDS011;9384;48.044;11.616;2022-07-29T06:56:08;2.53;;;2.33;;
18510;SDS011;9384;48.044;11.616;2022-07-29T06:58:37;2.00;;;1.90;;
18510;SDS011;9384;48.044;11.616;2022-07-29T07:01:05;3.27;;;1.80;;
18510;SDS011;9384;48.044;11.616;2022-07-29T07:03:32;7.60;;;2.13;;
18510;SDS011;9384;48.044;11.616;2022-07-29T07:06:01;2.73;;;1.67;;
18510;SDS011;9384;48.044;11.616;2022-07-29T07:08:28;4.93;;;2.00;;
18510;SDS011;9384;48.044;11.616;2022-07-29T07:10:55;2.90;;;1.50;;
18510;SDS011;9384;48.044;11.616;2022-07-29T07:13:22;1.80;;;1.70;;
18510;SDS011;9384;48.044;11.616;2022-07-29T07:15:50;2.03;;;1.93;;
18510;SDS011;9384;48.044;11.616;2022-07-29T07:18:17;1.90;;;1.80;;
18510;SDS011;9384;48.044;11.616;2022-07-29T07:20:45;2.63;;;1.83;;
18510;SDS011;9384;48.044;11.616;2022-07-29T07:23:13;1.40;;;1.40;;
18510;SDS011;9384;48.044;11.616;2022-07-29T07:25:41;3.13;;;1.70;;
18510;SDS011;9384;48.044;11.616;2022-07-29T07:28:08;2.33;;;1.60;;
18510;SDS011;9384;48.044;11.616;2022-07-29T07:30:35;1.77;;;1.67;;
18510;SDS011;9384;48.044;11.616;2022-07-29T07:33:02;1.70;;;1.70;;
18510;SDS011;9384;48.044;11.616;2022-07-29T07:35:29;1.40;;;1.40;;
18510;SDS011;9384;48.044;11.616;2022-07-29T07:37:57;1.40;;;1.40;;
18510;SDS011;9384;48.044;11.616;2022-07-29T07:40:26;1.27;;;1.27;;
18510;SDS011;9384;48.044;11.616;2022-07-29T07:42:53;1.33;;;1.33;;
18510;SDS011;9384;48.044;11.616;2022-07-29T07:45:20;1.47;;;1.37;;
18510;SDS011;9384;48.044;11.616;2022-07-29T07:47:47;1.40;;;1.20;;
18510;SDS011;9384;48.044;11.616;2022-07-29T07:50:15;1.20;;;1.20;;
18510;SDS011;9384;48.044;11.616;2022-07-29T07:52:46;2.03;;;1.30;;
18510;SDS011;9384;48.044;11.616;2022-07-29T07:55:14;1.73;;;1.67;;
18510;SDS011;9384;48.044;11.616;2022-07-29T07:57:43;1.40;;;1.40;;
18510;SDS011;9384;48.044;11.616;2022-07-29T08:00:10;1.97;;;1.47;;
18510;SDS011;9384;48.044;11.616;2022-07-29T08:02:38;1.33;;;1.33;;
18510;SDS011;9384;48.044;11.616;2022-07-29T08:05:06;1.60;;;1.50;;
18510;SDS011;9384;48.044;11.616;2022-07-29T08:07:33;1.40;;;1.40;;
18510;SDS011;9384;48.044;11.616;2022-07-29T08:10:00;2.37;;;1.50;;
18510;SDS011;9384;48.044;11.616;2022-07-29T08:12:28;0.97;;;0.97;;
18510;SDS011;9384;48.044;11.616;2022-07-29T08:14:56;1.27;;;1.27;;
18510;SDS011;9384;48.044;11.616;2022-07-29T08:17:23;1.50;;;1.50;;
18510;SDS011;9384;48.044;11.616;2022-07-29T08:19:51;1.47;;;1.37;;
18510;SDS011;9384;48.044;11.616;2022-07-29T08:22:18;1.50;;;1.40;;
18510;SDS011;9384;48.044;11.616;2022-07-29T08:24:46;1.27;;;1.27;;
18510;SDS011;9384;48.044;11.616;2022-07-29T08:29:47;1.47;;;1.47;;
18510;SDS011;9384;48.044;11.616;2022-07-29T08:32:16;1.37;;;1.37;;
18510;SDS011;9384;48.044;11.616;2022-07-29T08:34:43;1.30;;;1.30;;
18510;SDS011;9384;48.044;11.616;2022-07-29T08:37:11;1.40;;;1.40;;
18510;SDS011;9384;48.044;11.616;2022-07-29T08:39:38;1.77;;;1.67;;
18510;SDS011;9384;48.044;11.616;2022-07-29T08:42:06;4.57;;;1.50;;
18510;SDS011;9384;48.044;11.616;2022-07-29T08:44:34;1.30;;;1.30;;
18510;SDS011;9384;48.044;11.616;2022-07-29T08:47:02;2.50;;;1.70;;
18510;SDS011;9384;48.044;11.616;2022-07-29T08:49:32;5.13;;;1.63;;
18510;SDS011;9384;48.044;11.616;2022-07-29T08:51:59;1.40;;;1.40;;
18510;SDS011;9384;48.044;11.616;2022-07-29T08:54:27;1.47;;;1.47;;
18510;SDS011;9384;48.044;11.616;2022-07-29T08:56:54;1.50;;;1.40;;
18510;SDS011;9384;48.044;11.616;2022-07-29T08:59:21;1.87;;;1.77;;
18510;SDS011;9384;48.044;11.616;2022-07-29T09:01:49;1.50;;;1.40;;
18510;SDS011;9384;48.044;11.616;2022-07-29T09:04:19;1.60;;;1.60;;
18510;SDS011;9384;48.044;11.616;2022-07-29T09:06:49;1.50;;;1.40;;
18510;SDS011;9384;48.044;11.616;2022-07-29T09:09:18;2.67;;;1.80;;
18510;SDS011;9384;48.044;11.616;2022-07-29T09:11:45;1.67;;;1.57;;
18510;SDS011;9384;48.044;11.616;2022-07-29T09:14:12;1.70;;;1.70;;
18510;SDS011;9384;48.044;11.616;2022-07-29T09:16:47;2.13;;;2.03;;
18510;SDS011;9384;48.044;11.616;2022-07-29T09:19:21;1.77;;;1.67;;
18510;SDS011;9384;48.044;11.616;2022-07-29T09:21:50;3.77;;;1.90;;
18510;SDS011;9384;48.044;11.616;2022-07-29T09:24:23;2.10;;;2.00;;
18510;SDS011;9384;48.044;11.616;2022-07-29T09:26:51;1.77;;;1.67;;
18510;SDS011;9384;48.044;11.616;2022-07-29T09:29:19;1.60;;;1.60;;
18510;SDS011;9384;48.044;11.616;2022-07-29T09:31:47;2.20;;;2.00;;
18510;SDS011;9384;48.044;11.616;2022-07-29T09:34:15;1.70;;;1.70;;
18510;SDS011;9384;48.044;11.616;2022-07-29T09:36:44;2.60;;;2.20;;
18510;SDS011;9384;48.044;11.616;2022-07-29T09:39:13;1.90;;;1.80;;
18510;SDS011;9384;48.044;11.616;2022-07-29T09:41:44;2.17;;;1.60;;
18510;SDS011;9384;48.044;11.616;2022-07-29T09:44:11;2.33;;;2.20;;
18510;SDS011;9384;48.044;11.616;2022-07-29T09:46:39;2.10;;;2.03;;
18510;SDS011;9384;48.044;11.616;2022-07-29T09:49:08;1.80;;;1.80;;
18510;SDS011;9384;48.044;11.616;2022-07-29T09:51:35;1.80;;;1.80;;
18510;SDS011;9384;48.044;11.616;2022-07-29T09:54:03;2.60;;;2.47;;
18510;SDS011;9384;48.044;11.616;2022-07-29T09:56:49;4.60;;;1.80;;
18510;SDS011;9384;48.044;11.616;2022-07-29T09:59:16;3.13;;;2.10;;
18510;SDS011;9384;48.044;11.616;2022-07-29T10:01:45;2.10;;;2.10;;
18510;SDS011;9384;48.044;11.616;2022-07-29T10:04:12;2.13;;;2.03;;
18510;SDS011;9384;48.044;11.616;2022-07-29T10:06:54;2.40;;;2.07;;
18510;SDS011;9384;48.044;11.616;2022-07-29T10:09:22;2.07;;;2.00;;
18510;SDS011;9384;48.044;11.616;2022-07-29T10:12:03;2.27;;;2.17;;
18510;SDS011;9384;48.044;11.616;2022-07-29T10:14:31;2.70;;;2.10;;
18510;SDS011;9384;48.044;11.616;2022-07-29T10:16:58;1.87;;;1.87;;
18510;SDS011;9384;48.044;11.616;2022-07-29T10:19:26;2.00;;;1.90;;
18510;SDS011;9384;48.044;11.616;2022-07-29T10:21:54;2.10;;;2.00;;
18510;SDS011;9384;48.044;11.616;2022-07-29T10:24:21;2.77;;;2.37;;
18510;SDS011;9384;48.044;11.616;2022-07-29T10:26:49;2.03;;;2.03;;
18510;SDS011;9384;48.044;11.616;2022-07-29T10:29:18;4.87;;;2.43;;
18510;SDS011;9384;48.044;11.616;2022-07-29T10:31:48;2.17;;;2.17;;
18510;SDS011;9384;48.044;11.616;2022-07-29T10:34:18;2.20;;;2.10;;
18510;SDS011;9384;48.044;11.616;2022-07-29T10:36:49;2.50;;;2.40;;
18510;SDS011;9384;48.044;11.616;2022-07-29T10:39:24;3.57;;;2.40;;
18510;SDS011;9384;48.044;11.616;2022-07-29T10:42:01;2.80;;;2.10;;
18510;SDS011;9384;48.044;11.616;2022-07-29T10:44:30;2.40;;;2.20;;
18510;SDS011;9384;48.044;11.616;2022-07-29T10:46:58;1.90;;;1.90;;
18510;SDS011;9384;48.044;11.616;2022-07-29T10:49:25;2.20;;;2.13;;
18510;SDS011;9384;48.044;11.616;2022-07-29T10:52:02;2.40;;;2.20;;
18510;SDS011;9384;48.044;11.616;2022-07-29T10:54:37;2.20;;;2.10;;
18510;SDS011;9384;48.044;11.616;2022-07-29T10:57:11;2.70;;;2.53;;
18510;SDS011;9384;48.044;11.616;2022-07-29T10:59:40;2.50;;;2.40;;
18510;SDS011;9384;48.044;11.616;2022-07-29T11:04:58;2.67;;;2.10;;
18510;SDS011;9384;48.044;11.616;2022-07-29T11:07:26;2.70;;;2.50;;
18510;SDS011;9384;48.044;11.616;2022-07-29T11:12:46;2.50;;;2.40;;
18510;SDS011;9384;48.044;11.616;2022-07-29T11:15:15;2.53;;;2.08;;
18510;SDS011;9384;48.044;11.616;2022-07-29T11:20:39;2.20;;;2.10;;
18510;SDS011;9384;48.044;11.616;2022-07-29T11:28:39;2.28;;;2.20;;
18510;SDS011;9384;48.044;11.616;2022-07-29T11:31:08;2.15;;;1.98;;
18510;SDS011;9384;48.044;11.616;2022-07-29T11:33:36;5.20;;;2.05;;
18510;SDS011;9384;48.044;11.616;2022-07-29T11:36:08;1.83;;;1.80;;
18510;SDS011;9384;48.044;11.616;2022-07-29T11:38:35;2.33;;;2.22;;
18510;SDS011;9384;48.044;11.616;2022-07-29T11:41:21;3.08;;;2.15;;
18510;SDS011;9384;48.044;11.616;2022-07-29T11:43:49;3.58;;;1.75;;
18510;SDS011;9384;48.044;11.616;2022-07-29T11:46:19;2.03;;;1.90;;
18510;SDS011;9384;48.044;11.616;2022-07-29T11:49:06;1.98;;;1.92;;
18510;SDS011;9384;48.044;11.616;2022-07-29T11:51:34;2.30;;;2.15;;
18510;SDS011;9384;48.044;11.616;2022-07-29T11:54:01;2.30;;;2.20;;
18510;SDS011;9384;48.044;11.616;2022-07-29T11:56:29;2.00;;;1.98;;
18510;SDS011;9384;48.044;11.616;2022-07-29T11:59:02;2.20;;;2.20;;
18510;SDS011;9384;48.044;11.616;2022-07-29T12:01:32;2.58;;;1.88;;
18510;SDS011;9384;48.044;11.616;2022-07-29T12:04:03;2.40;;;2.20;;
18510;SDS011;9384;48.044;11.616;2022-07-29T12:06:31;2.05;;;1.95;;
18510;SDS011;9384;48.044;11.616;2022-07-29T12:08:58;2.30;;;2.15;;
18510;SDS011;9384;48.044;11.616;2022-07-29T12:11:26;2.53;;;2.05;;
18510;SDS011;9384;48.044;11.616;2022-07-29T12:13:53;1.95;;;1.95;;
18510;SDS011;9384;48.044;11.616;2022-07-29T12:16:21;3.80;;;2.40;;
18510;SDS011;9384;48.044;11.616;2022-07-29T12:18:55;2.03;;;2.03;;
18510;SDS011;9384;48.044;11.616;2022-07-29T12:21:23;2.35;;;1.80;;
18510;SDS011;9384;48.044;11.616;2022-07-29T12:23:54;2.25;;;2.15;;
18510;SDS011;9384;48.044;11.616;2022-07-29T12:26:21;2.13;;;1.83;;
18510;SDS011;9384;48.044;11.616;2022-07-29T12:28:48;1.63;;;1.52;;
18510;SDS011;9384;48.044;11.616;2022-07-29T12:31:16;2.10;;;2.08;;
18510;SDS011;9384;48.044;11.616;2022-07-29T12:33:43;1.73;;;1.73;;
18510;SDS011;9384;48.044;11.616;2022-07-29T12:36:19;2.00;;;1.90;;
18510;SDS011;9384;48.044;11.616;2022-07-29T12:38:47;3.60;;;1.92;;
18510;SDS011;9384;48.044;11.616;2022-07-29T12:41:14;2.33;;;1.90;;
18510;SDS011;9384;48.044;11.616;2022-07-29T12:43:51;1.50;;;1.50;;
18510;SDS011;9384;48.044;11.616;2022-07-29T12:46:19;1.73;;;1.73;;
18510;SDS011;9384;48.044;11.616;2022-07-29T12:48:49;1.88;;;1.77;;
18510;SDS011;9384;48.044;11.616;2022-07-29T12:51:25;1.60;;;1.60;;
18510;SDS011;9384;48.044;11.616;2022-07-29T12:54:01;3.28;;;1.85;;
18510;SDS011;9384;48.044;11.616;2022-07-29T12:56:29;1.42;;;1.33;;
18510;SDS011;9384;48.044;11.616;2022-07-29T12:58:56;1.52;;;1.52;;
18510;SDS011;9384;48.044;11.616;2022-07-29T13:01:23;1.80;;;1.70;;
18510;SDS011;9384;48.044;11.616;2022-07-29T13:03:52;3.10;;;1.80;;
18510;SDS011;9384;48.044;11.616;2022-07-29T13:06:33;1.73;;;1.60;;
18510;SDS011;9384;48.044;11.616;2022-07-29T13:09:05;1.80;;;1.70;;
18510;SDS011;9384;48.044;11.616;2022-07-29T13:11:33;2.07;;;1.83;;
18510;SDS011;9384;48.044;11.616;2022-07-29T13:14:00;1.90;;;1.73;;
18510;SDS011;9384;48.044;11.616;2022-07-29T13:16:27;1.87;;;1.77;;
18510;SDS011;9384;48.044;11.616;2022-07-29T13:19:08;1.77;;;1.67;;
18510;SDS011;9384;48.044;11.616;2022-07-29T13:21:37;1.70;;;1.70;;
18510;SDS011;9384;48.044;11.616;2022-07-29T13:24:05;2.37;;;2.13;;
18510;SDS011;9384;48.044;11.616;2022-07-29T13:26:33;2.20;;;1.83;;
18510;SDS011;9384;48.044;11.616;2022-07-29T13:29:00;1.90;;;1.90;;
18510;SDS011;9384;48.044;11.616;2022-07-29T13:31:27;1.70;;;1.60;;
18510;SDS011;9384;48.044;11.616;2022-07-29T13:33:54;3.63;;;1.80;;
18510;SDS011;9384;48.044;11.616;2022-07-29T13:36:22;1.90;;;1.90;;
18510;SDS011;9384;48.044;11.616;2022-07-29T13:38:50;2.47;;;2.23;;
18510;SDS011;9384;48.044;11.616;2022-07-29T13:41:18;4.10;;;2.50;;
18510;SDS011;9384;48.044;11.616;2022-07-29T13:43:45;2.30;;;2.07;;
18510;SDS011;9384;48.044;11.616;2022-07-29T13:46:12;1.93;;;1.60;;
18510;SDS011;9384;48.044;11.616;2022-07-29T13:48:39;2.20;;;2.00;;
18510;SDS011;9384;48.044;11.616;2022-07-29T13:51:06;2.10;;;2.00;;
18510;SDS011;9384;48.044;11.616;2022-07-29T13:53:34;2.47;;;2.37;;
18510;SDS011;9384;48.044;11.616;2022-07-29T13:56:02;2.33;;;1.97;;
18510;SDS011;9384;48.044;11.616;2022-07-29T13:58:31;7.23;;;2.13;;
18510;SDS011;9384;48.044;11.616;2022-07-29T14:00:58;2.13;;;1.93;;
18510;SDS011;9384;48.044;11.616;2022-07-29T14:03:26;2.60;;;2.43;;
18510;SDS011;9384;48.044;11.616;2022-07-29T14:05:53;1.90;;;1.90;;
18510;SDS011;9384;48.044;11.616;2022-07-29T14:08:21;2.17;;;1.97;;
18510;SDS011;9384;48.044;11.616;2022-07-29T14:10:48;2.03;;;1.93;;
18510;SDS011;9384;48.044;11.616;2022-07-29T14:13:16;2.00;;;1.90;;
18510;SDS011;9384;48.044;11.616;2022-07-29T14:15:44;2.00;;;1.90;;
18510;SDS011;9384;48.044;11.616;2022-07-29T14:18:11;1.93;;;1.80;;
18510;SDS011;9384;48.044;11.616;2022-07-29T14:20:38;1.90;;;1.90;;
18510;SDS011;9384;48.044;11.616;2022-07-29T14:23:05;2.33;;;1.87;;
18510;SDS011;9384;48.044;11.616;2022-07-29T14:25:32;2.20;;;2.10;;
18510;SDS011;9384;48.044;11.616;2022-07-29T14:27:59;1.90;;;1.80;;
18510;SDS011;9384;48.044;11.616;2022-07-29T14:30:28;1.83;;;1.80;;
18510;SDS011;9384;48.044;11.616;2022-07-29T14:32:55;2.22;;;2.17;;
18510;SDS011;9384;48.044;11.616;2022-07-29T14:35:22;2.53;;;2.28;;
18510;SDS011;9384;48.044;11.616;2022-07-29T14:37:50;1.95;;;1.90;;
18510;SDS011;9384;48.044;11.616;2022-07-29T14:40:17;3.35;;;2.47;;
18510;SDS011;9384;48.044;11.616;2022-07-29T14:42:44;1.98;;;1.77;;
18510;SDS011;9384;48.044;11.616;2022-07-29T14:45:11;1.98;;;1.88;;
18510;SDS011;9384;48.044;11.616;2022-07-29T14:47:40;1.70;;;1.70;;
18510;SDS011;9384;48.044;11.616;2022-07-29T14:50:07;2.20;;;1.90;;
18510;SDS011;9384;48.044;11.616;2022-07-29T14:52:35;1.88;;;1.88;;
18510;SDS011;9384;48.044;11.616;2022-07-29T14:55:02;2.42;;;2.20;;
18510;SDS011;9384;48.044;11.616;2022-07-29T14:57:30;4.00;;;2.35;;
18510;SDS011;9384;48.044;11.616;2022-07-29T14:59:57;1.90;;;1.90;;
18510;SDS011;9384;48.044;11.616;2022-07-29T15:02:24;3.08;;;2.10;;
18510;SDS011;9384;48.044;11.616;2022-07-29T15:04:52;2.60;;;2.40;;
18510;SDS011;9384;48.044;11.616;2022-07-29T15:07:20;2.43;;;2.00;;
18510;SDS011;9384;48.044;11.616;2022-07-29T15:09:47;2.10;;;2.00;;
18510;SDS011;9384;48.044;11.616;2022-07-29T15:12:14;2.47;;;2.10;;
18510;SDS011;9384;48.044;11.616;2022-07-29T15:14:41;3.80;;;2.33;;
18510;SDS011;9384;48.044;11.616;2022-07-29T15:17:08;2.27;;;2.17;;